Latest Weather Observations for Tatura

IDV60801

Issued at 9:35 am EST Friday 22 August 2014 (issued every 30 minutes, with the page automatically refreshed every 10 minutes)

About weather observations | Map of weather stations | Latest weather observations for VIC | Other Formats
Station Details ID: 081049 Name: TATURA INST SUSTAINABLE AG Lat: -36.44 Lon: 145.27 Height: 114.0 m
Data from the previous 72 hours. | See also: Recent months at Tatura
Date/Time
EST
Temp
°C
App
Temp
°C
Dew
Point
Rel
Hum
%
Delta-T
°C
Wind Press
QNH
hPa
Press
MSL
hPa
Rain
since 9 am
mm
Dir
 
Spd
km/h
Gust
km/h
Spd
kts
Gust
kts
22/09:30am 10.9 8.5 7.0 77 1.9 ESE 9 13 5 7 - - 0.0
22/09:00am 9.2 7.3 7.6 90 0.8 SE 7 11 4 6 - - 0.0
22/08:30am 6.7 4.4 5.7 93 0.4 SE 7 9 4 5 - - 0.0
22/08:00am 4.9 2.3 4.0 94 0.4 SE 7 11 4 6 - - 0.0
22/07:30am 1.4 -1.9 0.4 93 0.4 SE 7 9 4 5 - - 0.0
22/07:00am 0.9 -2.4 -0.2 92 0.4 SSE 7 9 4 5 - - 0.0
22/06:30am 0.9 -1.5 -0.2 92 0.4 SE 2 7 1 4 - - 0.0
22/06:00am 1.6 -2.0 0.6 93 0.4 SE 9 11 5 6 - - 0.0
22/05:30am 0.9 -1.1 -0.2 92 0.4 CALM 0 0 0 0 - - 0.0
22/05:00am 1.0 -1.0 -0.1 92 0.4 CALM 0 0 0 0 - - 0.0
22/04:30am 1.3 -0.7 0.1 92 0.4 CALM 0 0 0 0 - - 0.0
22/04:00am 1.4 -0.6 0.2 92 0.4 CALM 0 0 0 0 - - 0.0
22/03:30am 1.9 -1.3 0.7 92 0.5 SSE 7 7 4 4 - - 0.0
22/03:00am 3.4 0.6 2.2 92 0.5 SE 6 7 3 4 - - 0.0
22/02:30am 3.7 0.4 2.5 92 0.5 SE 9 9 5 5 - - 0.0
22/02:00am 4.5 1.8 3.5 93 0.4 SE 7 9 4 5 - - 0.0
22/01:30am 4.9 2.2 3.9 93 0.4 ESE 7 9 4 5 - - 0.0
22/01:00am 3.4 0.4 2.1 91 0.5 ESE 7 9 4 5 - - 0.0
22/12:30am 4.5 1.7 3.3 92 0.5 SE 7 9 4 5 - - 0.0
22/12:00am 3.5 0.5 2.2 91 0.5 SE 7 9 4 5 - - 0.0
 
Date/Time
EST
Temp
°C
App
Temp
°C
Dew
Point
Rel
Hum
%
Delta-T
°C
Wind Press
QNH
hPa
Press
MSL
hPa
Rain
since 9 am
mm
Dir
 
Spd
km/h
Gust
km/h
Spd
kts
Gust
kts
21/11:30pm 3.9 1.0 2.4 90 0.6 SE 7 9 4 5 - - 0.0
21/11:00pm 4.4 1.6 3.1 91 0.5 SE 7 9 4 5 - - 0.0
21/10:30pm 3.6 0.6 2.1 90 0.6 SE 7 9 4 5 - - 0.0
21/10:00pm 4.3 1.6 2.7 89 0.7 SE 6 7 3 4 - - 0.0
21/09:30pm 4.8 2.2 3.1 89 0.7 SSE 6 7 3 4 - - 0.0
21/09:00pm 5.6 4.2 3.8 88 0.8 CALM 0 0 0 0 - - 0.0
21/08:30pm 6.5 4.1 4.5 87 0.9 SSE 6 7 3 4 - - 0.0
21/08:00pm 6.5 3.9 4.0 84 1.1 SE 7 9 4 5 - - 0.0
21/07:30pm 7.9 5.0 4.8 81 1.4 SE 9 9 5 5 - - 0.0
21/07:00pm 9.7 8.8 6.2 79 1.6 CALM 0 0 0 0 - - 0.0
21/06:30pm 11.6 9.7 6.5 71 2.4 ESE 6 7 3 4 - - 0.0
21/06:00pm 12.6 10.6 6.4 66 3.0 E 6 7 3 4 - - 0.0
21/05:30pm 14.1 11.7 7.2 63 3.4 E 9 11 5 6 - - 0.0
21/05:00pm 15.0 12.7 7.3 60 3.8 ENE 9 13 5 7 - - 0.0
21/04:30pm 15.4 12.7 7.2 58 4.1 NE 11 17 6 9 - - 0.0
21/04:00pm 15.4 12.7 7.4 59 4.0 ENE 11 17 6 9 - - 0.0
21/03:30pm 15.6 12.5 7.4 58 4.1 ENE 13 20 7 11 - - 0.0
21/03:00pm 15.5 12.5 7.5 59 4.0 NNE 13 20 7 11 - - 0.0
21/02:30pm 15.3 11.8 7.1 58 4.1 NNE 15 20 8 11 - - 0.0
21/02:00pm 16.1 12.6 7.3 56 4.4 N 15 22 8 12 - - 0.0
21/01:30pm 16.6 13.8 8.6 59 4.1 N 13 19 7 10 - - 0.0
21/01:00pm 15.1 11.5 6.7 57 4.1 NE 15 20 8 11 - - 0.0
21/12:30pm 15.1 11.5 6.9 58 4.0 NE 15 22 8 12 - - 0.0
21/12:00pm 15.1 11.2 6.9 58 4.0 NNE 17 24 9 13 - - 0.0
21/11:30am 14.7 10.5 7.5 62 3.6 NNE 19 24 10 13 - - 0.0
21/11:00am 13.6 9.1 6.2 61 3.5 NNE 19 26 10 14 - - 0.0
21/10:30am 12.9 7.8 6.0 63 3.3 NNE 22 30 12 16 - - 0.0
21/10:00am 12.2 7.1 5.8 65 3.0 NE 22 30 12 16 - - 0.0
21/09:30am 11.4 6.2 5.3 66 2.8 NE 22 33 12 18 - - 0.0
21/09:00am 10.2 5.3 5.0 70 2.4 NE 20 30 11 16 - - 0.0
21/08:30am 9.1 4.2 5.1 76 1.8 NE 20 32 11 17 - - 0.0
21/08:00am 7.8 3.9 5.3 84 1.1 ENE 15 20 8 11 - - 0.0
21/07:30am 5.9 3.0 4.4 90 0.6 ESE 9 11 5 6 - - 0.0
21/07:00am 5.2 2.2 3.9 91 0.6 ESE 9 13 5 7 - - 0.0
21/06:30am 4.6 1.8 3.1 90 0.6 ESE 7 9 4 5 - - 0.0
21/06:00am 5.1 2.3 3.4 89 0.7 SE 7 9 4 5 - - 0.0
21/05:30am 5.2 2.1 3.4 88 0.8 SSE 9 9 5 5 - - 0.0
21/05:00am 5.9 3.2 3.7 86 0.9 SE 7 9 4 5 - - 0.0
21/04:30am 6.6 4.2 4.3 85 1.0 SSE 6 7 3 4 - - 0.0
21/04:00am 7.0 4.5 4.8 86 1.0 SSE 7 9 4 5 - - 0.0
21/03:30am 6.9 4.4 4.9 87 0.9 SSE 7 9 4 5 - - 0.0
21/03:00am 6.1 4.7 3.8 85 1.0 CALM 0 0 0 0 - - 0.0
21/02:30am 6.8 4.3 4.5 85 1.0 SSE 7 9 4 5 - - 0.0
21/02:00am 7.0 4.6 4.3 83 1.2 SSE 6 9 3 5 - - 0.0
21/01:30am 7.6 4.7 4.7 82 1.3 SSE 9 13 5 7 - - 0.0
21/01:00am 7.9 5.1 5.0 82 1.3 SSE 9 13 5 7 - - 0.0
21/12:30am 7.8 4.9 4.9 82 1.3 SSE 9 13 5 7 - - 0.0
21/12:00am 8.1 5.3 5.0 81 1.4 SSE 9 13 5 7 - - 0.0
 
Date/Time
EST
Temp
°C
App
Temp
°C
Dew
Point
Rel
Hum
%
Delta-T
°C
Wind Press
QNH
hPa
Press
MSL
hPa
Rain
since 9 am
mm
Dir
 
Spd
km/h
Gust
km/h
Spd
kts
Gust
kts
20/11:30pm 8.3 5.4 4.9 79 1.5 SSE 9 15 5 8 - - 0.0
20/11:00pm 8.4 5.2 5.0 79 1.5 SSE 11 17 6 9 - - 0.0
20/10:30pm 8.5 5.2 4.7 77 1.7 SSE 11 17 6 9 - - 0.0
20/10:00pm 9.2 6.0 5.0 75 1.9 SSE 11 17 6 9 - - 0.0
20/09:30pm 9.5 5.9 5.1 74 2.0 SSE 13 20 7 11 - - 0.0
20/09:00pm 9.5 5.9 5.1 74 2.0 S 13 17 7 9 - - 0.0
20/08:30pm 9.9 6.3 5.1 72 2.2 S 13 17 7 9 - - 0.0
20/08:00pm 10.5 6.2 5.1 69 2.5 S 17 22 9 12 - - 0.0
20/07:30pm 10.6 7.0 5.2 69 2.5 S 13 20 7 11 - - 0.0
20/07:00pm 10.9 7.9 5.9 71 2.3 SSE 11 15 6 8 - - 0.0
20/06:30pm 11.8 8.9 6.3 69 2.6 S 11 19 6 10 - - 0.0
20/06:00pm 12.5 10.0 6.5 67 2.9 SSE 9 13 5 7 - - 0.0
20/05:30pm 13.1 11.0 6.5 64 3.2 SSE 7 9 4 5 - - 0.0
20/05:00pm 13.8 11.3 6.4 61 3.6 SSE 9 13 5 7 - - 0.0
20/04:30pm 14.1 11.6 6.5 60 3.7 SSE 9 13 5 7 - - 0.0
20/04:00pm 14.9 12.3 6.0 55 4.3 SE 9 13 5 7 - - 0.0
20/03:30pm 15.0 12.1 6.3 56 4.2 SSE 11 17 6 9 - - 0.0
20/03:00pm 14.2 11.7 6.6 60 3.7 SSE 9 13 5 7 - - 0.0
20/02:30pm 14.3 11.8 6.6 60 3.7 S 9 15 5 8 - - 0.0
20/02:00pm 15.1 12.9 6.4 56 4.2 ESE 7 13 4 7 - - 0.0
20/01:30pm 14.6 12.0 6.2 57 4.1 SE 9 15 5 8 - - 0.0
20/01:00pm 14.2 11.8 6.8 61 3.6 E 9 15 5 8 - - 0.0
20/12:30pm 13.6 10.5 5.5 58 3.8 SE 11 17 6 9 - - 0.0
20/12:00pm 13.1 9.8 4.8 57 3.8 E 11 17 6 9 - - 0.0
20/11:30am 12.8 9.8 4.0 55 4.0 E 9 17 5 9 - - 0.0
20/11:00am 11.9 9.1 5.1 63 3.1 SE 9 15 5 8 - - 0.0
20/10:30am 11.4 8.9 4.8 64 3.0 SE 7 13 4 7 - - 0.0
20/10:00am 10.4 7.5 4.8 68 2.5 SE 9 15 5 8 - - 0.0
20/09:30am 9.4 6.0 4.0 69 2.4 SSE 11 17 6 9 - - 0.0
20/09:00am 8.2 4.0 3.9 74 1.9 SSE 15 20 8 11 - - 0.0
20/08:30am 7.2 3.7 3.4 77 1.6 SSE 11 15 6 8 - - 0.0
20/08:00am 5.7 2.0 2.5 80 1.3 SSE 11 17 6 9 - - 0.0
20/07:30am 4.2 0.8 1.6 83 1.0 SSE 9 11 5 6 - - 0.0
20/07:00am 3.7 0.2 1.1 83 1.0 SSE 9 11 5 6 - - 0.0
20/06:30am 4.1 0.3 1.5 83 1.0 SSE 11 13 6 7 - - 0.0
20/06:00am 4.3 0.9 1.7 83 1.0 SSE 9 13 5 7 - - 0.0
20/05:30am 4.3 0.5 1.7 83 1.0 SSE 11 13 6 7 - - 0.0
20/05:00am 4.5 0.7 1.9 83 1.0 SSE 11 13 6 7 - - 0.0
20/04:30am 4.6 1.2 1.8 82 1.1 SSE 9 13 5 7 - - 0.0
20/04:00am 4.8 1.4 2.0 82 1.1 SSE 9 11 5 6 - - 0.0
20/03:30am 5.1 1.7 2.1 81 1.2 SSE 9 11 5 6 - - 0.0
20/03:00am 5.5 1.4 2.5 81 1.2 S 13 17 7 9 - - 0.0
20/02:30am 5.8 1.8 2.8 81 1.2 S 13 17 7 9 - - 0.0
20/02:00am 6.1 2.5 3.1 81 1.3 S 11 15 6 8 - - 0.0
20/01:30am 6.2 2.3 3.2 81 1.3 S 13 17 7 9 - - 0.0
20/01:00am 6.2 2.6 3.2 81 1.3 S 11 15 6 8 - - 0.0
20/12:30am 6.6 3.1 3.6 81 1.3 S 11 17 6 9 - - 0.0
20/12:00am 6.8 3.0 3.8 81 1.3 S 13 17 7 9 - - 0.0
 
Date/Time
EST
Temp
°C
App
Temp
°C
Dew
Point
Rel
Hum
%
Delta-T
°C
Wind Press
QNH
hPa
Press
MSL
hPa
Rain
since 9 am
mm
Dir
 
Spd
km/h
Gust
km/h
Spd
kts
Gust
kts
19/11:30pm 7.0 3.2 4.0 81 1.3 S 13 19 7 10 - - 0.0
19/11:00pm 7.4 3.3 4.2 80 1.4 S 15 24 8 13 - - 0.0
19/10:30pm 7.2 3.5 4.2 81 1.3 S 13 19 7 10 - - 0.0
19/10:00pm 7.7 4.0 4.5 80 1.4 S 13 20 7 11 - - 0.0
19/09:30pm 7.8 4.1 4.7 81 1.4 S 13 20 7 11 - - 0.0
19/09:00pm 8.3 4.3 4.9 79 1.5 S 15 20 8 11 - - 0.0
19/08:30pm 8.7 4.7 5.1 78 1.6 S 15 20 8 11 - - 0.0
19/08:00pm 9.0 4.7 5.2 77 1.7 S 17 24 9 13 - - 0.0
19/07:30pm 9.4 5.1 5.4 76 1.8 S 17 22 9 12 - - 0.0
19/07:00pm 9.5 5.6 5.5 76 1.8 S 15 20 8 11 - - 0.0
19/06:30pm 10.2 6.4 5.6 73 2.1 SSW 15 20 8 11 - - 0.0
19/06:00pm 11.0 6.9 6.0 71 2.3 SSW 17 26 9 14 - - 0.0
19/05:30pm 12.2 7.8 6.5 68 2.7 S 19 28 10 15 - - 0.0
19/05:00pm 13.3 8.3 6.6 64 3.2 S 22 30 12 16 - - 0.0
19/04:30pm 14.2 9.3 7.0 62 3.5 S 22 32 12 17 - - 0.0
19/04:00pm 14.9 10.1 7.2 60 3.8 S 22 30 12 16 - - 0.0
19/03:30pm 15.5 10.5 6.5 55 4.4 S 22 28 12 15 - - 0.0
19/03:00pm 15.8 11.3 7.0 56 4.4 S 20 28 11 15 - - 0.0
19/02:30pm 16.1 11.7 7.3 56 4.4 S 20 32 11 17 - - 0.0
19/02:00pm 16.0 11.6 7.5 57 4.3 S 20 30 11 16 - - 0.0
19/01:30pm 16.1 12.3 7.6 57 4.3 S 17 28 9 15 - - 0.0
19/01:00pm 15.2 10.6 6.7 57 4.2 S 20 28 11 15 - - 0.0
19/12:30pm 15.1 10.7 7.2 59 3.9 S 20 28 11 15 - - 0.0
19/12:00pm 15.1 10.7 7.4 60 3.8 S 20 30 11 16 - - 0.0
19/11:30am 14.6 10.4 7.6 63 3.5 SSE 19 28 10 15 - - 0.0
19/11:00am 13.9 9.0 7.0 63 3.4 SSE 22 32 12 17 - - 0.0
19/10:30am 13.4 8.7 7.6 68 2.9 SSE 22 30 12 16 - - 0.0
19/10:00am 12.5 7.7 7.2 70 2.6 SSE 22 32 12 17 - - 0.0

Other Formats:

Comma delimited format used in spreadsheet applications
http://www.bom.gov.au/fwo/IDV60801/IDV60801.95836.axf

JavaScript Object Notation format (JSON) in row-major order
http://www.bom.gov.au/fwo/IDV60801/IDV60801.95836.json